createdAt,value
2018-07-13T00:00:37.020Z,19.96
2018-07-13T00:03:07.026Z,20.17
2018-07-13T00:05:36.819Z,20.07
2018-07-13T00:08:06.667Z,20.05
2018-07-13T00:10:36.729Z,20.01
2018-07-13T00:13:06.509Z,19.97
2018-07-13T00:15:36.282Z,19.90
2018-07-13T00:18:05.847Z,19.92
2018-07-13T00:20:35.727Z,19.92
2018-07-13T00:23:05.390Z,19.69
2018-07-13T00:25:35.398Z,19.73
2018-07-13T00:28:05.137Z,19.61
2018-07-13T00:30:34.775Z,19.50
2018-07-13T00:33:04.655Z,19.60
2018-07-13T00:35:34.255Z,19.73
2018-07-13T00:38:03.811Z,19.67
2018-07-13T00:40:33.723Z,19.54
2018-07-13T00:43:03.571Z,19.52
2018-07-13T00:45:33.144Z,19.42
2018-07-13T00:48:02.732Z,19.34
2018-07-13T00:50:32.567Z,19.41
2018-07-13T00:53:02.231Z,19.37
2018-07-13T00:55:32.090Z,19.40
2018-07-13T00:58:01.902Z,19.40
2018-07-13T01:00:32.968Z,19.36
2018-07-13T01:03:04.326Z,19.46
2018-07-13T01:05:33.912Z,19.41
2018-07-13T01:08:03.564Z,19.27
2018-07-13T01:10:33.723Z,19.31
2018-07-13T01:13:03.639Z,19.24
2018-07-13T01:15:33.223Z,19.23
2018-07-13T01:18:02.817Z,19.12
2018-07-13T01:20:32.346Z,19.20
2018-07-13T01:23:02.019Z,19.30
2018-07-13T01:25:31.944Z,19.21
2018-07-13T01:28:01.799Z,19.32
2018-07-13T01:30:31.577Z,19.58
2018-07-13T01:33:01.356Z,19.25
2018-07-13T01:35:31.007Z,19.09
2018-07-13T01:38:00.657Z,19.13
2018-07-13T01:40:30.351Z,19.03
2018-07-13T01:42:59.864Z,19.02
2018-07-13T01:45:29.484Z,19.18
2018-07-13T01:47:59.391Z,19.12
2018-07-13T01:50:28.912Z,19.21
2018-07-13T01:52:58.611Z,19.36
2018-07-13T01:55:28.381Z,19.43
2018-07-13T01:57:58.024Z,19.30
2018-07-13T02:00:27.704Z,19.28
2018-07-13T02:02:57.344Z,19.26
2018-07-13T02:05:27.124Z,19.24
2018-07-13T02:07:56.924Z,19.02
2018-07-13T02:10:26.443Z,19.07
2018-07-13T02:12:56.503Z,18.97
2018-07-13T02:15:26.056Z,18.70
2018-07-13T02:17:55.562Z,18.74
2018-07-13T02:20:25.197Z,18.96
2018-07-13T02:22:54.835Z,18.81
2018-07-13T02:25:24.407Z,18.85
2018-07-13T02:27:54.338Z,18.77
2018-07-13T02:30:24.088Z,18.88
2018-07-13T02:32:53.807Z,18.62
2018-07-13T02:35:23.445Z,18.71
2018-07-13T02:37:53.118Z,18.75
2018-07-13T02:40:23.140Z,18.93
2018-07-13T02:42:52.921Z,18.62
2018-07-13T02:45:22.615Z,18.02
2018-07-13T02:47:52.335Z,18.21
2018-07-13T02:50:22.056Z,18.20
2018-07-13T02:52:51.816Z,18.48
2018-07-13T02:55:21.544Z,18.54
2018-07-13T02:57:51.247Z,18.37
2018-07-13T03:00:21.152Z,18.39
2018-07-13T03:02:51.378Z,18.13
2018-07-13T03:05:20.913Z,18.13
2018-07-13T03:07:50.514Z,18.16
2018-07-13T03:10:20.476Z,18.26
2018-07-13T03:12:50.154Z,18.24
2018-07-13T03:15:19.894Z,18.19
2018-07-13T03:17:49.739Z,18.30
2018-07-13T03:20:19.414Z,18.36
2018-07-13T03:22:48.992Z,18.25
2018-07-13T03:25:18.600Z,18.45
2018-07-13T03:27:48.385Z,18.57
2018-07-13T03:30:18.171Z,18.68
2018-07-13T03:32:47.808Z,18.81
2018-07-13T03:35:17.598Z,18.83
2018-07-13T03:37:47.771Z,18.98
2018-07-13T03:40:17.711Z,19.15
2018-07-13T03:42:47.806Z,19.26
2018-07-13T03:45:17.623Z,19.35
2018-07-13T03:47:47.382Z,19.42
2018-07-13T03:50:17.122Z,19.54
2018-07-13T03:52:46.687Z,19.57
2018-07-13T03:55:16.502Z,19.62
2018-07-13T03:57:46.315Z,19.63
2018-07-13T04:00:15.875Z,19.81
2018-07-13T04:02:45.687Z,19.89
2018-07-13T04:05:15.268Z,19.90
2018-07-13T04:07:45.039Z,19.95
2018-07-13T04:10:15.050Z,19.99
2018-07-13T04:12:44.780Z,20.08
2018-07-13T04:15:14.547Z,20.21
2018-07-13T04:17:44.094Z,20.21
2018-07-13T04:20:13.848Z,20.36
2018-07-13T04:22:43.578Z,20.46
2018-07-13T04:25:13.431Z,20.50
2018-07-13T04:27:43.430Z,20.53
2018-07-13T04:30:13.180Z,20.69
2018-07-13T04:32:42.800Z,20.79
2018-07-13T04:35:12.474Z,20.91
2018-07-13T04:37:42.199Z,21.10
2018-07-13T04:40:12.319Z,21.21
2018-07-13T04:42:42.040Z,21.39
2018-07-13T04:45:12.183Z,21.60
2018-07-13T04:47:42.107Z,21.61
2018-07-13T04:50:12.078Z,21.78
2018-07-13T04:52:42.098Z,21.90
2018-07-13T04:55:11.750Z,21.90
2018-07-13T04:57:41.899Z,22.09
2018-07-13T05:00:11.914Z,22.13
2018-07-13T05:02:41.799Z,22.21
2018-07-13T05:05:11.470Z,22.34
2018-07-13T05:07:41.173Z,22.55
2018-07-13T05:10:10.901Z,22.62
2018-07-13T05:12:40.751Z,22.68
2018-07-13T05:15:10.791Z,22.71
2018-07-13T05:17:40.855Z,22.58
2018-07-13T05:20:11.075Z,22.77
2018-07-13T05:22:41.166Z,22.69
2018-07-13T05:25:10.840Z,22.71
2018-07-13T05:27:41.076Z,22.82
2018-07-13T05:30:10.934Z,22.87
2018-07-13T05:32:40.813Z,22.92
2018-07-13T05:35:10.775Z,22.73
2018-07-13T05:37:40.501Z,22.72
2018-07-13T05:40:10.267Z,23.11
2018-07-13T05:42:40.011Z,23.07
2018-07-13T05:45:09.918Z,22.99
2018-07-13T05:47:39.901Z,23.39
2018-07-13T05:50:09.837Z,23.60
2018-07-13T05:52:39.867Z,23.57
2018-07-13T05:55:10.007Z,23.63
2018-07-13T05:57:39.851Z,23.72
2018-07-13T06:00:09.791Z,23.53
2018-07-13T06:02:39.783Z,23.59
2018-07-13T06:05:09.575Z,23.44
2018-07-13T06:07:39.578Z,23.55
2018-07-13T06:10:09.573Z,23.55
2018-07-13T06:12:39.283Z,23.63
2018-07-13T06:15:08.933Z,23.90
2018-07-13T06:17:38.607Z,23.76
2018-07-13T06:20:09.866Z,23.93
2018-07-13T06:22:40.054Z,23.49
2018-07-13T06:25:10.530Z,23.71
2018-07-13T06:27:40.703Z,23.69
2018-07-13T06:30:10.539Z,23.91
2018-07-13T06:32:40.650Z,23.70
2018-07-13T06:35:10.342Z,23.28
2018-07-13T06:37:40.319Z,23.77
2018-07-13T06:40:10.454Z,23.83
2018-07-13T06:42:40.242Z,23.77
2018-07-13T06:45:10.623Z,23.23
2018-07-13T06:47:40.314Z,23.92
2018-07-13T06:50:10.087Z,24.25
2018-07-13T06:52:39.848Z,24.20
2018-07-13T06:55:09.510Z,24.00
2018-07-13T06:57:50.253Z,24.06
2018-07-13T07:01:14.512Z,23.96
2018-07-13T07:04:54.210Z,24.18
2018-07-13T07:07:24.754Z,24.03
2018-07-13T07:09:56.403Z,24.06
2018-07-13T07:14:34.444Z,24.16
2018-07-13T07:17:04.231Z,24.07
2018-07-13T07:19:33.821Z,24.18
2018-07-13T07:22:03.299Z,24.65
2018-07-13T07:24:33.050Z,24.83
2018-07-13T07:27:03.044Z,24.58
2018-07-13T07:29:32.945Z,24.93
2018-07-13T07:32:02.720Z,25.05
2018-07-13T07:34:32.547Z,25.01
2018-07-13T07:37:02.642Z,24.90
2018-07-13T07:39:32.595Z,24.85
2018-07-13T07:42:02.534Z,24.66
2018-07-13T07:44:32.419Z,25.26
2018-07-13T07:47:02.026Z,24.87
2018-07-13T07:49:31.940Z,25.08
2018-07-13T07:52:01.521Z,25.05
2018-07-13T07:54:31.252Z,24.96
2018-07-13T07:57:00.845Z,25.04
2018-07-13T07:59:30.823Z,25.20
2018-07-13T08:02:00.962Z,25.01
2018-07-13T08:04:30.735Z,25.47
2018-07-13T08:07:00.972Z,25.18
2018-07-13T08:09:30.623Z,25.65
2018-07-13T08:12:00.814Z,25.99
2018-07-13T08:14:30.606Z,26.29
2018-07-13T08:17:00.582Z,26.54
2018-07-13T08:19:30.439Z,26.33
2018-07-13T08:22:07.946Z,26.15
2018-07-13T08:24:37.818Z,26.55
2018-07-13T08:27:08.408Z,26.96
2018-07-13T08:29:40.810Z,27.04
2018-07-13T08:32:10.475Z,27.40
2018-07-13T08:34:40.322Z,27.45
2018-07-13T08:37:09.999Z,27.43
2018-07-13T08:39:39.807Z,27.74
2018-07-13T08:42:09.532Z,27.71
2018-07-13T08:44:39.566Z,27.71
2018-07-13T08:47:09.372Z,27.72
2018-07-13T08:49:39.150Z,27.52
2018-07-13T08:52:09.048Z,27.84
2018-07-13T08:54:38.877Z,28.03
2018-07-13T08:57:08.808Z,28.13
2018-07-13T08:59:38.581Z,28.22
2018-07-13T09:02:08.179Z,28.25
2018-07-13T09:04:37.995Z,28.00
2018-07-13T09:07:07.544Z,28.25
2018-07-13T09:09:37.175Z,28.48
2018-07-13T09:12:07.098Z,28.64
2018-07-13T09:14:37.302Z,28.78
2018-07-13T09:17:07.328Z,28.73
2018-07-13T09:19:37.032Z,29.03
2018-07-13T09:22:07.023Z,29.57
2018-07-13T09:24:36.715Z,29.53
2018-07-13T09:27:06.647Z,29.44
2018-07-13T09:29:36.819Z,29.77
2018-07-13T09:32:06.588Z,29.93
2018-07-13T09:34:36.250Z,29.21
2018-07-13T09:37:06.063Z,29.44
2018-07-13T09:39:35.958Z,29.24
2018-07-13T09:42:05.872Z,29.21
2018-07-13T09:44:35.614Z,28.83
2018-07-13T09:47:05.635Z,28.72
2018-07-13T09:49:35.597Z,28.74
2018-07-13T09:52:05.299Z,28.84
2018-07-13T09:54:35.254Z,28.61
2018-07-13T09:57:05.183Z,28.81
2018-07-13T09:59:35.011Z,28.91
2018-07-13T10:02:04.897Z,29.21
2018-07-13T10:04:34.739Z,29.74
2018-07-13T10:07:04.395Z,30.08
2018-07-13T10:09:34.106Z,30.19
2018-07-13T10:12:03.966Z,30.25
2018-07-13T10:14:33.878Z,30.80
2018-07-13T10:17:03.882Z,30.86
2018-07-13T10:19:33.922Z,31.23
2018-07-13T10:22:04.039Z,31.20
2018-07-13T10:24:35.321Z,30.64
2018-07-13T10:27:05.330Z,30.82
2018-07-13T10:29:38.011Z,30.56
2018-07-13T10:32:07.977Z,30.58
2018-07-13T10:34:37.811Z,31.29
2018-07-13T10:37:07.588Z,31.64
2018-07-13T10:39:37.218Z,31.66
2018-07-13T10:42:06.842Z,31.15
2018-07-13T10:44:36.852Z,31.09
2018-07-13T10:47:06.874Z,30.32
2018-07-13T10:49:36.552Z,31.47
2018-07-13T10:52:06.376Z,30.86
2018-07-13T10:54:36.127Z,30.67
2018-07-13T10:57:06.131Z,31.17
2018-07-13T10:59:35.679Z,32.07
2018-07-13T11:02:05.845Z,32.99
2018-07-13T11:04:35.855Z,32.98
2018-07-13T11:07:05.802Z,31.95
2018-07-13T11:09:35.365Z,31.47
2018-07-13T11:12:05.065Z,30.92
2018-07-13T11:14:34.735Z,30.28
2018-07-13T11:17:04.377Z,30.24
2018-07-13T11:19:34.167Z,30.83
2018-07-13T11:22:04.082Z,31.38
2018-07-13T11:24:33.934Z,31.57
2018-07-13T11:27:04.164Z,31.68
2018-07-13T11:29:34.112Z,31.49
2018-07-13T11:32:03.798Z,31.37
2018-07-13T11:34:33.711Z,31.01
2018-07-13T11:37:03.912Z,31.79
2018-07-13T11:39:33.766Z,31.32
2018-07-13T11:42:04.176Z,31.66
2018-07-13T11:44:33.936Z,30.37
2018-07-13T11:47:03.578Z,30.24
2018-07-13T11:49:33.769Z,30.50
2018-07-13T11:52:04.396Z,30.66
2018-07-13T11:54:34.131Z,30.93
2018-07-13T11:57:04.223Z,31.20
2018-07-13T11:59:34.212Z,31.58
2018-07-13T12:02:03.881Z,31.40
2018-07-13T12:04:33.599Z,31.74
2018-07-13T12:07:03.442Z,32.13
2018-07-13T12:09:33.365Z,32.41
2018-07-13T12:12:03.493Z,32.72
2018-07-13T12:14:33.080Z,33.10
2018-07-13T12:17:02.779Z,33.32
2018-07-13T12:19:32.376Z,33.66
2018-07-13T12:22:02.597Z,33.86
2018-07-13T12:24:32.543Z,34.22
2018-07-13T12:27:02.474Z,34.60
2018-07-13T12:29:32.264Z,34.62
2018-07-13T12:32:02.421Z,34.86
2018-07-13T12:34:32.138Z,35.18
2018-07-13T12:37:01.988Z,35.52
2018-07-13T12:39:31.994Z,36.28
2018-07-13T12:42:02.135Z,35.73
2018-07-13T12:44:31.945Z,34.56
2018-07-13T12:47:01.439Z,34.89
2018-07-13T12:49:31.466Z,35.09
2018-07-13T12:52:01.152Z,34.02
2018-07-13T12:54:31.129Z,33.81
2018-07-13T12:57:00.862Z,32.31
2018-07-13T12:59:30.674Z,32.90
2018-07-13T13:02:00.332Z,33.22
2018-07-13T13:04:30.056Z,33.05
2018-07-13T13:07:00.125Z,33.52
2018-07-13T13:09:30.221Z,33.46
2018-07-13T13:11:59.803Z,32.50
2018-07-13T13:14:29.623Z,32.31
2018-07-13T13:16:59.164Z,32.49
2018-07-13T13:19:28.736Z,32.50
2018-07-13T13:21:58.552Z,32.69
2018-07-13T13:24:27.975Z,33.57
2018-07-13T13:26:57.887Z,33.56
2018-07-13T13:29:27.679Z,33.08
2018-07-13T13:31:57.608Z,33.22
2018-07-13T13:34:27.239Z,34.39
2018-07-13T13:36:57.032Z,34.97
2018-07-13T13:39:26.836Z,35.31
2018-07-13T13:41:56.402Z,34.96
2018-07-13T13:44:26.287Z,35.09
2018-07-13T13:46:56.150Z,35.16
2018-07-13T13:49:26.086Z,35.38
2018-07-13T13:51:56.728Z,34.82
2018-07-13T13:54:26.327Z,35.02
2018-07-13T13:56:56.144Z,35.05
2018-07-13T13:59:26.028Z,34.64
2018-07-13T14:01:56.179Z,34.63
2018-07-13T14:04:26.084Z,34.57
2018-07-13T14:06:55.987Z,34.30
2018-07-13T14:09:25.850Z,34.12
2018-07-13T14:11:55.675Z,33.42
2018-07-13T14:14:25.375Z,33.34
2018-07-13T14:16:55.325Z,33.49
2018-07-13T14:19:25.131Z,33.11
2018-07-13T14:21:54.857Z,33.30
2018-07-13T14:24:24.465Z,33.50
2018-07-13T14:26:54.412Z,33.56
2018-07-13T14:29:24.019Z,33.66
2018-07-13T14:31:54.243Z,33.72
2018-07-13T14:34:23.863Z,33.54
2018-07-13T14:36:53.706Z,33.51
2018-07-13T14:39:23.832Z,33.62
2018-07-13T14:41:53.749Z,33.07
2018-07-13T14:44:23.614Z,33.39
2018-07-13T14:46:53.310Z,33.38
2018-07-13T14:49:23.386Z,33.48
2018-07-13T14:51:53.105Z,33.68
2018-07-13T14:54:23.174Z,33.63
2018-07-13T14:56:52.740Z,33.92
2018-07-13T14:59:22.434Z,34.21
2018-07-13T15:01:52.322Z,34.52
2018-07-13T15:04:21.989Z,34.97
2018-07-13T15:06:51.847Z,35.58
2018-07-13T15:09:21.848Z,36.19
2018-07-13T15:11:51.715Z,36.87
2018-07-13T15:14:21.482Z,37.41
2018-07-13T15:16:51.453Z,37.88
2018-07-13T15:19:21.434Z,38.07
2018-07-13T15:21:51.413Z,37.21
2018-07-13T15:24:21.303Z,37.71
2018-07-13T15:26:55.986Z,37.39
2018-07-13T15:29:25.742Z,36.58
2018-07-13T15:31:55.708Z,35.59
2018-07-13T15:34:25.707Z,34.30
2018-07-13T15:36:55.955Z,35.29
2018-07-13T15:39:25.756Z,35.13
2018-07-13T15:41:55.890Z,34.74
2018-07-13T15:44:25.844Z,34.80
2018-07-13T15:46:55.499Z,35.05
2018-07-13T15:49:25.195Z,35.12
2018-07-13T15:51:55.200Z,34.66
2018-07-13T15:54:25.097Z,34.92
2018-07-13T15:56:54.990Z,34.78
2018-07-13T15:59:25.167Z,34.59
2018-07-13T16:01:55.366Z,33.88
2018-07-13T16:04:25.046Z,33.10
2018-07-13T16:06:54.730Z,33.65
2018-07-13T16:09:24.772Z,33.81
2018-07-13T16:11:54.554Z,32.50
2018-07-13T16:14:24.212Z,32.75
2018-07-13T16:16:54.256Z,33.53
2018-07-13T16:19:24.542Z,33.56
2018-07-13T16:21:54.175Z,32.55
2018-07-13T16:24:24.086Z,32.39
2018-07-13T16:26:53.980Z,32.58
2018-07-13T16:29:24.100Z,32.22
2018-07-13T16:31:54.086Z,32.16
2018-07-13T16:34:23.939Z,32.26
2018-07-13T16:36:53.418Z,31.63
2018-07-13T16:39:23.153Z,31.56
2018-07-13T16:41:53.351Z,31.84
2018-07-13T16:44:23.255Z,31.14
2018-07-13T16:46:53.216Z,31.72
2018-07-13T16:49:23.352Z,31.56
2018-07-13T16:51:53.639Z,31.56
2018-07-13T16:54:23.270Z,31.49
2018-07-13T16:56:52.980Z,31.24
2018-07-13T16:59:22.913Z,31.09
2018-07-13T17:01:53.187Z,31.35
2018-07-13T17:04:23.088Z,31.56
2018-07-13T17:06:52.846Z,31.08
2018-07-13T17:09:22.805Z,31.08
2018-07-13T17:11:52.437Z,32.03
2018-07-13T17:14:22.999Z,31.38
2018-07-13T17:16:53.134Z,31.17
2018-07-13T17:19:23.061Z,31.78
2018-07-13T17:21:53.220Z,31.97
2018-07-13T17:24:22.972Z,31.78
2018-07-13T17:26:52.788Z,31.04
2018-07-13T17:29:22.792Z,30.88
2018-07-13T17:31:53.369Z,30.42
2018-07-13T17:34:23.220Z,29.99
2018-07-13T17:36:53.675Z,29.84
2018-07-13T17:39:23.210Z,29.94
2018-07-13T17:41:53.348Z,29.70
2018-07-13T17:44:23.267Z,29.45
2018-07-13T17:46:53.058Z,29.12
2018-07-13T17:49:22.755Z,29.13
2018-07-13T17:51:53.154Z,28.95
2018-07-13T17:54:23.353Z,28.78
2018-07-13T17:56:53.478Z,28.58
2018-07-13T17:59:23.424Z,28.18
2018-07-13T18:01:53.206Z,28.16
2018-07-13T18:04:23.278Z,27.89
2018-07-13T18:06:53.740Z,27.86
2018-07-13T18:09:23.895Z,27.54
2018-07-13T18:11:53.541Z,27.48
2018-07-13T18:14:23.461Z,27.36
2018-07-13T18:16:53.331Z,27.26
2018-07-13T18:19:23.004Z,26.77
2018-07-13T18:21:52.551Z,26.64
2018-07-13T18:24:22.727Z,26.17
2018-07-13T18:26:52.660Z,25.73
2018-07-13T18:29:22.799Z,25.38
2018-07-13T18:31:52.502Z,25.25
2018-07-13T18:34:23.006Z,24.79
2018-07-13T18:36:52.745Z,24.63
2018-07-13T18:39:22.578Z,24.50
2018-07-13T18:41:52.402Z,24.25
2018-07-13T18:44:22.085Z,24.27
2018-07-13T18:46:52.253Z,23.89
2018-07-13T18:49:22.047Z,23.46
2018-07-13T18:51:52.240Z,23.32
2018-07-13T18:54:23.377Z,23.27
2018-07-13T18:56:53.167Z,23.13
2018-07-13T18:59:23.126Z,22.76
2018-07-13T19:01:53.075Z,22.61
2018-07-13T19:04:23.244Z,22.80
2018-07-13T19:06:53.186Z,22.58
2018-07-13T19:09:22.769Z,22.66
2018-07-13T19:11:52.818Z,22.52
2018-07-13T19:14:22.948Z,22.62
2018-07-13T19:16:52.637Z,22.41
2018-07-13T19:19:22.620Z,22.37
2018-07-13T19:21:53.158Z,22.35
2018-07-13T19:24:22.763Z,22.19
2018-07-13T19:26:52.780Z,21.96
2018-07-13T19:29:22.983Z,21.95
2018-07-13T19:31:52.939Z,21.88
2018-07-13T19:34:22.878Z,21.98
2018-07-13T19:36:52.503Z,21.84
2018-07-13T19:39:22.975Z,21.76
2018-07-13T19:41:53.264Z,21.84
2018-07-13T19:44:22.863Z,21.69
2018-07-13T19:46:52.464Z,21.73
2018-07-13T19:49:22.339Z,21.78
2018-07-13T19:51:52.380Z,21.78
2018-07-13T19:54:21.883Z,21.66
2018-07-13T19:56:51.788Z,21.61
2018-07-13T19:59:21.935Z,21.63
2018-07-13T20:01:51.538Z,21.66
2018-07-13T20:04:21.258Z,21.70
2018-07-13T20:06:51.167Z,21.68
2018-07-13T20:09:21.137Z,21.64
2018-07-13T20:11:50.775Z,21.61
2018-07-13T20:14:20.711Z,21.77
2018-07-13T20:16:50.451Z,21.85
2018-07-13T20:19:20.265Z,21.88
2018-07-13T20:21:50.326Z,21.95
2018-07-13T20:24:20.243Z,21.92
2018-07-13T20:26:50.250Z,21.83
2018-07-13T20:29:19.918Z,21.96
2018-07-13T20:31:50.210Z,21.97
2018-07-13T20:34:19.802Z,21.91
2018-07-13T20:36:49.914Z,22.12
2018-07-13T20:39:20.055Z,21.95
2018-07-13T20:41:49.574Z,21.97
2018-07-13T20:44:19.217Z,21.95
2018-07-13T20:46:49.256Z,21.87
2018-07-13T20:49:18.990Z,21.69
2018-07-13T20:51:49.122Z,21.68
2018-07-13T20:54:18.753Z,21.68
2018-07-13T20:56:48.965Z,21.69
2018-07-13T20:59:18.552Z,21.58
2018-07-13T21:01:48.515Z,21.56
2018-07-13T21:04:18.215Z,21.50
2018-07-13T21:06:47.923Z,21.64
2018-07-13T21:09:17.814Z,21.62
2018-07-13T21:11:47.312Z,21.56
2018-07-13T21:14:16.836Z,21.51
2018-07-13T21:16:46.950Z,21.55
2018-07-13T21:19:16.591Z,21.52
2018-07-13T21:21:46.131Z,21.40
2018-07-13T21:24:16.401Z,21.37
2018-07-13T21:26:46.484Z,21.38
2018-07-13T21:29:16.110Z,21.23
2018-07-13T21:31:46.092Z,21.14
2018-07-13T21:34:16.241Z,21.17
2018-07-13T21:36:46.278Z,21.02
2018-07-13T21:39:15.847Z,21.19
2018-07-13T21:41:45.809Z,21.07
2018-07-13T21:44:15.280Z,21.08
2018-07-13T21:46:45.279Z,20.96
2018-07-13T21:49:15.548Z,20.91
2018-07-13T21:51:45.251Z,20.92
2018-07-13T21:54:14.723Z,20.87
2018-07-13T21:56:45.093Z,21.05
2018-07-13T21:59:14.789Z,20.99
2018-07-13T22:01:45.377Z,20.89
2018-07-13T22:04:15.369Z,20.81
2018-07-13T22:06:45.048Z,20.84
2018-07-13T22:09:15.080Z,20.85
2018-07-13T22:11:44.708Z,20.81
2018-07-13T22:14:14.163Z,20.88
2018-07-13T22:16:44.151Z,20.66
2018-07-13T22:19:13.867Z,20.55
2018-07-13T22:21:43.511Z,20.58
2018-07-13T22:24:13.893Z,20.60
2018-07-13T22:26:43.703Z,20.49
2018-07-13T22:29:13.355Z,20.41
2018-07-13T22:31:43.290Z,20.32
2018-07-13T22:34:13.306Z,20.52
2018-07-13T22:36:43.123Z,20.48
2018-07-13T22:39:12.710Z,20.34
2018-07-13T22:41:42.528Z,20.35
2018-07-13T22:44:11.966Z,20.31
2018-07-13T22:46:41.757Z,20.37
2018-07-13T22:49:12.199Z,20.56
2018-07-13T22:51:41.987Z,20.65
2018-07-13T22:54:12.126Z,20.58
2018-07-13T22:56:41.823Z,20.45
2018-07-13T22:59:11.435Z,20.36
2018-07-13T23:01:41.675Z,20.56
2018-07-13T23:04:11.370Z,20.56
2018-07-13T23:06:41.578Z,20.64
2018-07-13T23:09:11.140Z,20.65
2018-07-13T23:11:40.859Z,20.68
2018-07-13T23:14:10.578Z,20.78
2018-07-13T23:16:40.450Z,20.76
2018-07-13T23:19:10.577Z,20.68
2018-07-13T23:21:40.463Z,20.79
2018-07-13T23:24:11.025Z,20.71
2018-07-13T23:26:40.757Z,20.72
2018-07-13T23:29:10.840Z,20.82
2018-07-13T23:31:40.643Z,20.85
2018-07-13T23:34:10.386Z,20.96
2018-07-13T23:36:39.895Z,21.19
2018-07-13T23:39:09.683Z,21.13
2018-07-13T23:41:39.250Z,21.06
2018-07-13T23:44:09.528Z,20.92
2018-07-13T23:46:39.215Z,20.94
2018-07-13T23:49:09.085Z,20.99
2018-07-13T23:51:39.467Z,21.01
2018-07-13T23:54:09.199Z,21.18
2018-07-13T23:56:39.709Z,21.12
2018-07-13T23:59:09.412Z,21.11
